createdAt,value
2017-11-17T00:00:57.123Z,1014.68
2017-11-17T00:01:57.108Z,1014.69
2017-11-17T00:02:57.089Z,1014.69
2017-11-17T00:03:57.077Z,1014.71
2017-11-17T00:04:57.053Z,1014.72
2017-11-17T00:05:57.037Z,1014.71
2017-11-17T00:06:57.017Z,1014.73
2017-11-17T00:07:57.001Z,1014.73
2017-11-17T00:08:56.983Z,1014.76
2017-11-17T00:09:56.966Z,1014.75
2017-11-17T00:10:56.948Z,1014.74
2017-11-17T00:11:56.930Z,1014.75
2017-11-17T00:12:56.913Z,1014.78
2017-11-17T00:13:56.896Z,1014.76
2017-11-17T00:14:56.877Z,1014.74
2017-11-17T00:15:56.861Z,1014.76
2017-11-17T00:16:56.843Z,1014.73
2017-11-17T00:17:56.874Z,1014.77
2017-11-17T00:18:56.809Z,1014.74
2017-11-17T00:19:56.788Z,1014.8
2017-11-17T00:20:56.771Z,1014.8
2017-11-17T00:21:56.754Z,1014.77
2017-11-17T00:22:56.736Z,1014.83
2017-11-17T00:23:56.719Z,1014.75
2017-11-17T00:24:56.702Z,1014.81
2017-11-17T00:25:56.687Z,1014.87
2017-11-17T00:26:56.665Z,1014.84
2017-11-17T00:27:56.649Z,1014.85
2017-11-17T00:28:56.635Z,1014.89
2017-11-17T00:29:56.612Z,1014.85
2017-11-17T00:30:56.596Z,1014.85
2017-11-17T00:31:56.578Z,1014.83
2017-11-17T00:32:56.559Z,1014.82
2017-11-17T00:33:56.543Z,1014.83
2017-11-17T00:34:56.525Z,1014.87
2017-11-17T00:35:56.507Z,1014.81
2017-11-17T00:36:56.489Z,1014.8
2017-11-17T00:37:56.470Z,1014.84
2017-11-17T00:38:56.453Z,1014.84
2017-11-17T00:39:56.436Z,1014.81
2017-11-17T00:40:56.423Z,1014.85
2017-11-17T00:41:56.400Z,1014.84
2017-11-17T00:42:56.392Z,1014.84
2017-11-17T00:43:56.371Z,1014.86
2017-11-17T00:44:56.348Z,1014.87
2017-11-17T00:45:56.329Z,1014.89
2017-11-17T00:46:56.313Z,1014.9
2017-11-17T00:47:56.296Z,1014.93
2017-11-17T00:48:56.277Z,1014.94
2017-11-17T00:49:56.258Z,1014.95
2017-11-17T00:50:56.243Z,1014.98
2017-11-17T00:51:56.226Z,1014.96
2017-11-17T00:52:56.208Z,1014.96
2017-11-17T00:53:56.239Z,1014.97
2017-11-17T00:54:56.194Z,1014.96
2017-11-17T00:55:56.168Z,1014.99
2017-11-17T00:56:56.140Z,1014.98
2017-11-17T00:57:56.122Z,1014.95
2017-11-17T00:58:56.103Z,1014.96
2017-11-17T00:59:56.093Z,1015.02
2017-11-17T01:00:56.068Z,1015.02
2017-11-17T01:01:56.051Z,1015
2017-11-17T01:02:56.032Z,1015.05
2017-11-17T01:03:56.017Z,1015.02
2017-11-17T01:04:55.997Z,1015.05
2017-11-17T01:05:55.982Z,1015.08
2017-11-17T01:06:55.963Z,1015.06
2017-11-17T01:07:55.945Z,1015.11
2017-11-17T01:08:55.928Z,1015.12
2017-11-17T01:09:55.916Z,1015.12
2017-11-17T01:10:55.897Z,1015.13
2017-11-17T01:11:55.916Z,1015.14
2017-11-17T01:12:55.857Z,1015.15
2017-11-17T01:13:55.842Z,1015.14
2017-11-17T01:14:55.824Z,1015.13
2017-11-17T01:15:55.806Z,1015.2
2017-11-17T01:16:55.788Z,1015.18
2017-11-17T01:17:55.773Z,1015.21
2017-11-17T01:18:55.754Z,1015.19
2017-11-17T01:19:55.737Z,1015.24
2017-11-17T01:20:55.719Z,1015.23
2017-11-17T01:21:55.700Z,1015.24
2017-11-17T01:22:55.684Z,1015.26
2017-11-17T01:23:55.673Z,1015.28
2017-11-17T01:24:55.651Z,1015.29
2017-11-17T01:25:55.632Z,1015.26
2017-11-17T01:26:55.616Z,1015.27
2017-11-17T01:27:55.597Z,1015.28
2017-11-17T01:28:55.581Z,1015.28
2017-11-17T01:29:55.565Z,1015.29
2017-11-17T01:30:55.548Z,1015.32
2017-11-17T01:31:55.529Z,1015.37
2017-11-17T01:32:55.512Z,1015.32
2017-11-17T01:33:55.494Z,1015.35
2017-11-17T01:34:55.477Z,1015.36
2017-11-17T01:35:55.459Z,1015.34
2017-11-17T01:36:55.442Z,1015.37
2017-11-17T01:37:55.425Z,1015.37
2017-11-17T01:38:55.407Z,1015.37
2017-11-17T01:39:55.392Z,1015.41
2017-11-17T01:40:55.372Z,1015.4
2017-11-17T01:41:55.357Z,1015.41
2017-11-17T01:42:55.337Z,1015.39
2017-11-17T01:43:55.321Z,1015.39
2017-11-17T01:44:55.303Z,1015.43
2017-11-17T01:45:55.286Z,1015.46
2017-11-17T01:46:55.268Z,1015.45
2017-11-17T01:47:55.252Z,1015.42
2017-11-17T01:48:55.234Z,1015.48
2017-11-17T01:49:55.217Z,1015.49
2017-11-17T01:50:55.198Z,1015.46
2017-11-17T01:51:55.184Z,1015.47
2017-11-17T01:52:55.168Z,1015.49
2017-11-17T01:53:55.148Z,1015.49
2017-11-17T01:54:55.130Z,1015.53
2017-11-17T01:55:55.114Z,1015.55
2017-11-17T01:56:55.097Z,1015.53
2017-11-17T01:57:55.078Z,1015.54
2017-11-17T01:58:55.267Z,1015.55
2017-11-17T01:59:55.044Z,1015.56
2017-11-17T02:00:55.028Z,1015.53
2017-11-17T02:01:55.010Z,1015.54
2017-11-17T02:02:54.995Z,1015.54
2017-11-17T02:03:54.977Z,1015.57
2017-11-17T02:04:54.966Z,1015.55
2017-11-17T02:05:54.947Z,1015.56
2017-11-17T02:06:54.925Z,1015.52
2017-11-17T02:07:54.909Z,1015.53
2017-11-17T02:08:54.893Z,1015.58
2017-11-17T02:09:54.873Z,1015.57
2017-11-17T02:10:54.875Z,1015.59
2017-11-17T02:11:54.838Z,1015.66
2017-11-17T02:12:54.822Z,1015.65
2017-11-17T02:13:54.805Z,1015.61
2017-11-17T02:14:54.789Z,1015.67
2017-11-17T02:15:54.770Z,1015.64
2017-11-17T02:16:54.752Z,1015.67
2017-11-17T02:17:54.735Z,1015.68
2017-11-17T02:18:54.718Z,1015.61
2017-11-17T02:19:54.701Z,1015.65
2017-11-17T02:20:54.684Z,1015.65
2017-11-17T02:21:54.668Z,1015.69
2017-11-17T02:22:54.650Z,1015.66
2017-11-17T02:23:54.631Z,1015.7
2017-11-17T02:24:54.615Z,1015.68
2017-11-17T02:25:54.598Z,1015.7
2017-11-17T02:26:54.581Z,1015.75
2017-11-17T02:27:54.570Z,1015.73
2017-11-17T02:28:54.548Z,1015.7
2017-11-17T02:29:54.531Z,1015.71
2017-11-17T02:30:54.516Z,1015.73
2017-11-17T02:31:54.496Z,1015.69
2017-11-17T02:32:54.479Z,1015.68
2017-11-17T02:33:54.461Z,1015.69
2017-11-17T02:34:54.444Z,1015.68
2017-11-17T02:35:54.429Z,1015.7
2017-11-17T02:36:54.411Z,1015.73
2017-11-17T02:37:54.394Z,1015.76
2017-11-17T02:38:54.376Z,1015.77
2017-11-17T02:39:54.358Z,1015.79
2017-11-17T02:40:54.392Z,1015.84
2017-11-17T02:41:54.326Z,1015.82
2017-11-17T02:42:54.307Z,1015.78
2017-11-17T02:43:54.291Z,1015.8
2017-11-17T02:44:54.279Z,1015.79
2017-11-17T02:45:54.259Z,1015.79
2017-11-17T02:46:54.245Z,1015.78
2017-11-17T02:47:54.228Z,1015.77
2017-11-17T02:48:54.205Z,1015.77
2017-11-17T02:49:54.191Z,1015.78
2017-11-17T02:50:54.170Z,1015.76
2017-11-17T02:51:54.152Z,1015.79
2017-11-17T02:52:54.135Z,1015.78
2017-11-17T02:53:54.118Z,1015.83
2017-11-17T02:54:54.102Z,1015.81
2017-11-17T02:55:54.083Z,1015.82
2017-11-17T02:56:54.065Z,1015.84
2017-11-17T02:57:54.051Z,1015.86
2017-11-17T02:58:54.032Z,1015.88
2017-11-17T02:59:54.014Z,1015.9
2017-11-17T03:00:53.998Z,1015.88
2017-11-17T03:01:53.980Z,1015.9
2017-11-17T03:02:53.963Z,1015.88
2017-11-17T03:03:53.946Z,1015.91
2017-11-17T03:04:53.929Z,1015.9
2017-11-17T03:05:53.912Z,1015.93
2017-11-17T03:06:53.894Z,1015.93
2017-11-17T03:07:53.875Z,1015.93
2017-11-17T03:08:53.863Z,1015.89
2017-11-17T03:09:53.843Z,1015.88
2017-11-17T03:10:53.828Z,1015.92
2017-11-17T03:11:53.808Z,1015.93
2017-11-17T03:12:53.791Z,1015.9
2017-11-17T03:13:53.775Z,1015.99
2017-11-17T03:14:53.758Z,1016.02
2017-11-17T03:15:53.739Z,1016.02
2017-11-17T03:16:53.720Z,1016.04
2017-11-17T03:17:53.701Z,1016.02
2017-11-17T03:18:53.689Z,1016.03
2017-11-17T03:19:53.671Z,1016.01
2017-11-17T03:20:53.651Z,1016
2017-11-17T03:21:53.633Z,1016.02
2017-11-17T03:22:53.617Z,1016.05
2017-11-17T03:23:53.599Z,1016.05
2017-11-17T03:24:53.585Z,1016.03
2017-11-17T03:25:53.564Z,1016.05
2017-11-17T03:26:53.555Z,1016.06
2017-11-17T03:27:53.531Z,1016.12
2017-11-17T03:28:53.514Z,1016.11
2017-11-17T03:29:53.498Z,1016.11
2017-11-17T03:30:53.480Z,1016.11
2017-11-17T03:31:53.462Z,1016.12
2017-11-17T03:32:53.443Z,1016.14
2017-11-17T03:33:53.425Z,1016.17
2017-11-17T03:34:53.408Z,1016.2
2017-11-17T03:35:53.390Z,1016.19
2017-11-17T03:36:53.423Z,1016.24
2017-11-17T03:37:53.361Z,1016.24
2017-11-17T03:38:53.337Z,1016.25
2017-11-17T03:39:53.324Z,1016.29
2017-11-17T03:40:53.304Z,1016.28
2017-11-17T03:41:53.286Z,1016.35
2017-11-17T03:42:53.268Z,1016.33
2017-11-17T03:43:53.254Z,1016.41
2017-11-17T03:44:53.233Z,1016.37
2017-11-17T03:45:53.215Z,1016.39
2017-11-17T03:46:53.197Z,1016.37
2017-11-17T03:47:53.178Z,1016.41
2017-11-17T03:48:53.170Z,1016.44
2017-11-17T03:49:53.145Z,1016.41
2017-11-17T03:50:53.126Z,1016.43
2017-11-17T03:51:53.108Z,1016.47
2017-11-17T03:52:53.092Z,1016.45
2017-11-17T03:53:53.075Z,1016.51
2017-11-17T03:54:53.059Z,1016.48
2017-11-17T03:55:53.036Z,1016.47
2017-11-17T03:56:53.022Z,1016.5
2017-11-17T03:57:53.005Z,1016.5
2017-11-17T03:58:53.187Z,1016.51
2017-11-17T03:59:52.966Z,1016.54
2017-11-17T04:00:52.950Z,1016.55
2017-11-17T04:01:52.931Z,1016.58
2017-11-17T04:02:52.914Z,1016.54
2017-11-17T04:03:52.898Z,1016.53
2017-11-17T04:04:52.878Z,1016.56
2017-11-17T04:05:52.860Z,1016.57
2017-11-17T04:06:52.844Z,1016.56
2017-11-17T04:07:52.825Z,1016.54
2017-11-17T04:08:52.816Z,1016.57
2017-11-17T04:09:52.789Z,1016.53
2017-11-17T04:10:52.771Z,1016.5
2017-11-17T04:11:52.755Z,1016.53
2017-11-17T04:12:52.735Z,1016.56
2017-11-17T04:13:52.734Z,1016.56
2017-11-17T04:14:52.702Z,1016.56
2017-11-17T04:15:52.684Z,1016.57
2017-11-17T04:16:52.675Z,1016.59
2017-11-17T04:17:52.647Z,1016.57
2017-11-17T04:18:52.631Z,1016.58
2017-11-17T04:19:52.654Z,1016.51
2017-11-17T04:20:52.602Z,1016.55
2017-11-17T04:21:52.584Z,1016.57
2017-11-17T04:22:52.560Z,1016.58
2017-11-17T04:23:52.541Z,1016.57
2017-11-17T04:24:52.523Z,1016.58
2017-11-17T04:25:52.505Z,1016.59
2017-11-17T04:26:52.488Z,1016.57
2017-11-17T04:27:52.468Z,1016.6
2017-11-17T04:28:52.450Z,1016.56
2017-11-17T04:29:52.435Z,1016.54
2017-11-17T04:30:52.413Z,1016.59
2017-11-17T04:31:52.397Z,1016.57
2017-11-17T04:32:52.377Z,1016.6
2017-11-17T04:33:52.358Z,1016.58
2017-11-17T04:34:52.340Z,1016.58
2017-11-17T04:35:52.322Z,1016.58
2017-11-17T04:36:52.305Z,1016.53
2017-11-17T04:37:52.287Z,1016.6
2017-11-17T04:38:52.269Z,1016.59
2017-11-17T04:39:52.257Z,1016.55
2017-11-17T04:40:52.232Z,1016.56
2017-11-17T04:41:52.213Z,1016.55
2017-11-17T04:42:52.194Z,1016.54
2017-11-17T04:43:52.177Z,1016.59
2017-11-17T04:44:52.158Z,1016.58
2017-11-17T04:45:52.140Z,1016.6
2017-11-17T04:46:52.120Z,1016.6
2017-11-17T04:47:52.103Z,1016.59
2017-11-17T04:48:52.099Z,1016.58
2017-11-17T04:49:52.064Z,1016.61
2017-11-17T04:50:52.047Z,1016.62
2017-11-17T04:51:52.035Z,1016.58
2017-11-17T04:52:52.009Z,1016.6
2017-11-17T04:53:51.991Z,1016.57
2017-11-17T04:54:51.972Z,1016.59
2017-11-17T04:55:51.953Z,1016.59
2017-11-17T04:56:51.935Z,1016.63
2017-11-17T04:57:51.915Z,1016.63
2017-11-17T04:58:51.904Z,1016.65
2017-11-17T04:59:51.881Z,1016.62
2017-11-17T05:00:51.875Z,1016.64
2017-11-17T05:01:51.844Z,1016.65
2017-11-17T05:02:51.822Z,1016.65
2017-11-17T05:03:51.806Z,1016.66
2017-11-17T05:04:51.784Z,1016.67
2017-11-17T05:05:51.782Z,1016.64
2017-11-17T05:06:51.747Z,1016.67
2017-11-17T05:07:51.732Z,1016.65
2017-11-17T05:08:51.708Z,1016.69
2017-11-17T05:09:51.694Z,1016.68
2017-11-17T05:10:51.674Z,1016.69
2017-11-17T05:11:51.652Z,1016.67
2017-11-17T05:12:51.635Z,1016.7
2017-11-17T05:13:51.614Z,1016.7
2017-11-17T05:14:51.602Z,1016.76
2017-11-17T05:15:51.581Z,1016.74
2017-11-17T05:16:51.558Z,1016.76
2017-11-17T05:17:51.538Z,1016.78
2017-11-17T05:18:51.520Z,1016.8
2017-11-17T05:19:51.503Z,1016.81
2017-11-17T05:20:51.483Z,1016.78
2017-11-17T05:21:51.463Z,1016.83
2017-11-17T05:22:51.446Z,1016.83
2017-11-17T05:23:51.475Z,1016.84
2017-11-17T05:24:51.416Z,1016.84
2017-11-17T05:25:51.389Z,1016.86
2017-11-17T05:26:51.368Z,1016.88
2017-11-17T05:27:51.349Z,1016.88
2017-11-17T05:28:51.330Z,1016.89
2017-11-17T05:29:51.310Z,1016.91
2017-11-17T05:30:51.291Z,1016.89
2017-11-17T05:31:51.272Z,1016.95
2017-11-17T05:32:51.253Z,1016.93
2017-11-17T05:33:51.234Z,1016.94
2017-11-17T05:34:51.213Z,1016.95
2017-11-17T05:35:51.194Z,1016.98
2017-11-17T05:36:51.174Z,1016.98
2017-11-17T05:37:51.155Z,1016.99
2017-11-17T05:38:51.138Z,1017.01
2017-11-17T05:39:51.118Z,1016.99
2017-11-17T05:40:51.099Z,1016.97
2017-11-17T05:41:51.078Z,1017
2017-11-17T05:42:51.066Z,1016.97
2017-11-17T05:43:51.044Z,1016.99
2017-11-17T05:44:51.022Z,1017
2017-11-17T05:45:51.004Z,1016.98
2017-11-17T05:46:50.983Z,1017.03
2017-11-17T05:47:50.966Z,1017.02
2017-11-17T05:48:50.945Z,1017.05
2017-11-17T05:49:50.924Z,1017.05
2017-11-17T05:50:50.907Z,1017.05
2017-11-17T05:51:50.887Z,1017.11
2017-11-17T05:52:50.868Z,1017.09
2017-11-17T05:53:50.847Z,1017.06
2017-11-17T05:54:50.828Z,1017.08
2017-11-17T05:55:50.811Z,1017.1
2017-11-17T05:56:50.796Z,1017.09
2017-11-17T05:57:50.772Z,1017.09
2017-11-17T05:58:50.955Z,1017.08
2017-11-17T05:59:50.732Z,1017.11
2017-11-17T06:00:50.711Z,1017.14
2017-11-17T06:01:50.697Z,1017.18
2017-11-17T06:02:50.670Z,1017.11
2017-11-17T06:03:50.652Z,1017.14
2017-11-17T06:04:50.636Z,1017.15
2017-11-17T06:05:50.614Z,1017.16
2017-11-17T06:06:50.595Z,1017.15
2017-11-17T06:07:50.575Z,1017.18
2017-11-17T06:08:50.557Z,1017.19
2017-11-17T06:09:50.537Z,1017.19
2017-11-17T06:10:50.517Z,1017.15
2017-11-17T06:11:50.498Z,1017.19
2017-11-17T06:12:50.477Z,1017.23
2017-11-17T06:13:50.457Z,1017.18
2017-11-17T06:14:50.438Z,1017.25
2017-11-17T06:15:50.417Z,1017.27
2017-11-17T06:16:50.398Z,1017.24
2017-11-17T06:17:50.383Z,1017.28
2017-11-17T06:18:50.361Z,1017.31
2017-11-17T06:19:50.339Z,1017.28
2017-11-17T06:20:50.318Z,1017.28
2017-11-17T06:21:50.300Z,1017.28
2017-11-17T06:22:50.278Z,1017.35
2017-11-17T06:23:50.261Z,1017.32
2017-11-17T06:24:50.240Z,1017.31
2017-11-17T06:25:50.220Z,1017.4
2017-11-17T06:26:50.199Z,1017.39
2017-11-17T06:27:50.179Z,1017.36
2017-11-17T06:28:50.161Z,1017.44
2017-11-17T06:29:50.140Z,1017.49
2017-11-17T06:30:50.120Z,1017.48
2017-11-17T06:31:50.104Z,1017.5
2017-11-17T06:32:50.079Z,1017.52
2017-11-17T06:33:50.059Z,1017.52
2017-11-17T06:34:50.043Z,1017.54
2017-11-17T06:35:50.020Z,1017.58
2017-11-17T06:36:50.000Z,1017.57
2017-11-17T06:37:49.981Z,1017.58
2017-11-17T06:38:49.960Z,1017.61
2017-11-17T06:39:49.940Z,1017.58
2017-11-17T06:40:49.919Z,1017.52
2017-11-17T06:41:49.902Z,1017.6
2017-11-17T06:42:49.882Z,1017.55
2017-11-17T06:43:49.858Z,1017.56
2017-11-17T06:44:49.847Z,1017.57
2017-11-17T06:45:49.818Z,1017.55
2017-11-17T06:46:49.800Z,1017.56
2017-11-17T06:47:49.778Z,1017.59
2017-11-17T06:48:49.757Z,1017.57
2017-11-17T06:49:49.738Z,1017.6
2017-11-17T06:50:49.719Z,1017.59
2017-11-17T06:51:49.697Z,1017.58
2017-11-17T06:52:49.676Z,1017.64
2017-11-17T06:53:49.661Z,1017.66
2017-11-17T06:54:49.636Z,1017.65
2017-11-17T06:55:49.614Z,1017.63
2017-11-17T06:56:49.628Z,1017.64
2017-11-17T06:57:49.575Z,1017.66
2017-11-17T06:58:49.555Z,1017.73
2017-11-17T06:59:49.533Z,1017.75
2017-11-17T07:00:49.516Z,1017.76
2017-11-17T07:01:49.493Z,1017.77
2017-11-17T07:02:49.475Z,1017.77
2017-11-17T07:03:49.454Z,1017.79
2017-11-17T07:04:49.433Z,1017.79
2017-11-17T07:05:49.410Z,1017.82
2017-11-17T07:06:49.390Z,1017.83
2017-11-17T07:07:49.369Z,1017.79
2017-11-17T07:08:49.349Z,1017.83
2017-11-17T07:09:49.328Z,1017.84
2017-11-17T07:10:49.312Z,1017.85
2017-11-17T07:11:49.287Z,1017.9
2017-11-17T07:12:49.267Z,1017.93
2017-11-17T07:13:49.247Z,1017.9
2017-11-17T07:14:49.227Z,1017.96
2017-11-17T07:15:49.204Z,1017.99
2017-11-17T07:16:49.187Z,1018.03
2017-11-17T07:17:49.165Z,1017.98
2017-11-17T07:18:49.143Z,1018.04
2017-11-17T07:19:49.126Z,1018.06
2017-11-17T07:20:49.103Z,1018.08
2017-11-17T07:21:49.085Z,1018.12
2017-11-17T07:22:49.062Z,1018.15
2017-11-17T07:23:49.043Z,1018.16
2017-11-17T07:24:49.021Z,1018.18
2017-11-17T07:25:49.001Z,1018.18
2017-11-17T07:26:48.982Z,1018.18
2017-11-17T07:27:48.960Z,1018.22
2017-11-17T07:28:48.940Z,1018.26
2017-11-17T07:29:48.918Z,1018.29
2017-11-17T07:30:48.901Z,1018.26
2017-11-17T07:31:48.878Z,1018.31
2017-11-17T07:32:48.857Z,1018.29
2017-11-17T07:33:48.836Z,1018.31
2017-11-17T07:34:48.821Z,1018.34
2017-11-17T07:35:48.796Z,1018.32
2017-11-17T07:36:48.780Z,1018.36
2017-11-17T07:37:48.755Z,1018.35
2017-11-17T07:38:48.740Z,1018.36
2017-11-17T07:39:48.716Z,1018.41
2017-11-17T07:40:48.702Z,1018.4
2017-11-17T07:41:48.677Z,1018.42
2017-11-17T07:42:48.652Z,1018.46
2017-11-17T07:43:48.634Z,1018.45
2017-11-17T07:44:48.613Z,1018.46
2017-11-17T07:45:48.590Z,1018.48
2017-11-17T07:46:48.571Z,1018.46
2017-11-17T07:47:48.550Z,1018.53
2017-11-17T07:48:48.530Z,1018.52
2017-11-17T07:49:48.511Z,1018.51
2017-11-17T07:50:48.499Z,1018.49
2017-11-17T07:51:48.471Z,1018.48
2017-11-17T07:52:48.449Z,1018.51
2017-11-17T07:53:48.428Z,1018.54
2017-11-17T07:54:48.409Z,1018.5
2017-11-17T07:55:48.387Z,1018.56
2017-11-17T07:56:48.420Z,1018.52
2017-11-17T07:57:48.349Z,1018.52
2017-11-17T07:58:48.528Z,1018.55
2017-11-17T07:59:48.314Z,1018.48
2017-11-17T08:00:48.287Z,1018.53
2017-11-17T08:01:48.265Z,1018.5
2017-11-17T08:02:48.246Z,1018.51
2017-11-17T08:03:48.223Z,1018.52
2017-11-17T08:04:48.203Z,1018.53
2017-11-17T08:05:48.183Z,1018.53
2017-11-17T08:06:48.169Z,1018.52
2017-11-17T08:07:48.142Z,1018.52
2017-11-17T08:08:48.123Z,1018.55
2017-11-17T08:09:48.103Z,1018.54
2017-11-17T08:10:48.082Z,1018.55
2017-11-17T08:11:48.060Z,1018.56
2017-11-17T08:12:48.045Z,1018.55
2017-11-17T08:13:48.020Z,1018.49
2017-11-17T08:14:48.004Z,1018.51
2017-11-17T08:15:47.983Z,1018.52
2017-11-17T08:16:47.962Z,1018.54
2017-11-17T08:17:47.940Z,1018.58
2017-11-17T08:18:47.919Z,1018.52
2017-11-17T08:19:47.902Z,1018.53
2017-11-17T08:20:47.881Z,1018.53
2017-11-17T08:21:47.865Z,1018.56
2017-11-17T08:22:47.840Z,1018.51
2017-11-17T08:23:47.821Z,1018.52
2017-11-17T08:24:47.804Z,1018.51
2017-11-17T08:25:47.780Z,1018.51
2017-11-17T08:26:47.761Z,1018.53
2017-11-17T08:27:47.741Z,1018.5
2017-11-17T08:28:47.722Z,1018.52
2017-11-17T08:29:47.704Z,1018.54
2017-11-17T08:30:47.680Z,1018.48
2017-11-17T08:31:47.697Z,1018.49
2017-11-17T08:32:47.640Z,1018.51
2017-11-17T08:33:47.621Z,1018.52
2017-11-17T08:34:47.601Z,1018.5
2017-11-17T08:35:47.582Z,1018.54
2017-11-17T08:36:47.560Z,1018.51
2017-11-17T08:37:47.548Z,1018.53
2017-11-17T08:38:47.520Z,1018.59
2017-11-17T08:39:47.503Z,1018.56
2017-11-17T08:40:47.486Z,1018.55
2017-11-17T08:41:47.462Z,1018.54
2017-11-17T08:42:47.441Z,1018.49
2017-11-17T08:43:47.424Z,1018.56
2017-11-17T08:44:47.401Z,1018.52
2017-11-17T08:45:47.393Z,1018.54
2017-11-17T08:46:47.360Z,1018.57
2017-11-17T08:47:47.342Z,1018.56
2017-11-17T08:48:47.323Z,1018.57
2017-11-17T08:49:47.307Z,1018.53
2017-11-17T08:50:47.282Z,1018.58
2017-11-17T08:51:47.269Z,1018.56
2017-11-17T08:52:47.242Z,1018.57
2017-11-17T08:53:47.224Z,1018.61
2017-11-17T08:54:47.203Z,1018.61
2017-11-17T08:55:47.185Z,1018.62
2017-11-17T08:56:47.163Z,1018.63
2017-11-17T08:57:47.143Z,1018.58
2017-11-17T08:58:47.127Z,1018.6
2017-11-17T08:59:47.104Z,1018.6
2017-11-17T09:00:47.086Z,1018.6
2017-11-17T09:01:47.065Z,1018.61
2017-11-17T09:02:47.047Z,1018.58
2017-11-17T09:03:47.031Z,1018.58
2017-11-17T09:04:47.007Z,1018.59
2017-11-17T09:05:46.992Z,1018.6
2017-11-17T09:06:46.968Z,1018.6
2017-11-17T09:07:46.950Z,1018.58
2017-11-17T09:08:46.926Z,1018.59
2017-11-17T09:09:46.911Z,1018.57
2017-11-17T09:10:46.888Z,1018.57
2017-11-17T09:11:46.869Z,1018.55
2017-11-17T09:12:46.850Z,1018.52
2017-11-17T09:13:46.829Z,1018.54
2017-11-17T09:14:46.815Z,1018.5
2017-11-17T09:15:46.791Z,1018.53
2017-11-17T09:16:46.770Z,1018.5
2017-11-17T09:17:46.751Z,1018.47
2017-11-17T09:18:46.733Z,1018.49
2017-11-17T09:19:46.714Z,1018.49
2017-11-17T09:20:46.694Z,1018.52
2017-11-17T09:21:46.679Z,1018.56
2017-11-17T09:22:46.656Z,1018.58
2017-11-17T09:23:46.637Z,1018.63
2017-11-17T09:24:46.621Z,1018.59
2017-11-17T09:25:46.600Z,1018.57
2017-11-17T09:26:46.580Z,1018.57
2017-11-17T09:27:46.562Z,1018.61
2017-11-17T09:28:46.546Z,1018.59
2017-11-17T09:29:46.527Z,1018.63
2017-11-17T09:30:46.511Z,1018.68
2017-11-17T09:31:46.493Z,1018.68
2017-11-17T09:32:46.473Z,1018.71
2017-11-17T09:33:46.454Z,1018.74
2017-11-17T09:34:46.438Z,1018.73
2017-11-17T09:35:46.419Z,1018.77
2017-11-17T09:36:46.403Z,1018.79
2017-11-17T09:37:46.383Z,1018.84
2017-11-17T09:38:46.366Z,1018.8
2017-11-17T09:39:46.351Z,1018.84
2017-11-17T09:40:46.332Z,1018.85
2017-11-17T09:41:46.317Z,1018.8
2017-11-17T09:42:46.300Z,1018.85
2017-11-17T09:43:46.284Z,1018.85
2017-11-17T09:44:46.275Z,1018.86
2017-11-17T09:45:46.253Z,1018.85
2017-11-17T09:46:46.234Z,1018.9
2017-11-17T09:47:46.217Z,1018.92
2017-11-17T09:48:46.204Z,1018.87
2017-11-17T09:49:46.197Z,1018.88
2017-11-17T09:50:46.171Z,1018.93
2017-11-17T09:51:46.159Z,1018.94
2017-11-17T09:52:46.139Z,1018.96
2017-11-17T09:53:46.127Z,1018.99
2017-11-17T09:54:46.118Z,1018.94
2017-11-17T09:55:46.094Z,1018.95
2017-11-17T09:56:46.081Z,1018.94
2017-11-17T09:57:46.063Z,1018.98
2017-11-17T09:58:46.252Z,1018.96
2017-11-17T09:59:46.033Z,1018.92
2017-11-17T10:00:46.019Z,1018.94
2017-11-17T10:01:46.005Z,1018.9
2017-11-17T10:02:45.991Z,1018.9
2017-11-17T10:03:45.977Z,1018.93
2017-11-17T10:04:45.961Z,1018.88
2017-11-17T10:05:45.950Z,1018.92
2017-11-17T10:06:45.937Z,1018.93
2017-11-17T10:07:45.922Z,1018.95
2017-11-17T10:08:45.906Z,1018.98
2017-11-17T10:09:45.896Z,1018.92
2017-11-17T10:10:45.879Z,1018.94
2017-11-17T10:11:45.871Z,1018.88
2017-11-17T10:12:45.858Z,1018.85
2017-11-17T10:13:45.890Z,1018.88
2017-11-17T10:14:45.827Z,1018.85
2017-11-17T10:15:45.814Z,1018.91
2017-11-17T10:16:45.803Z,1018.87
2017-11-17T10:17:45.789Z,1018.88
2017-11-17T10:18:45.777Z,1018.86
2017-11-17T10:19:45.765Z,1018.81
2017-11-17T10:20:45.752Z,1018.81
2017-11-17T10:21:45.740Z,1018.8
2017-11-17T10:22:45.725Z,1018.8
2017-11-17T10:23:45.713Z,1018.77
2017-11-17T10:24:45.702Z,1018.77
2017-11-17T10:25:45.687Z,1018.83
2017-11-17T10:26:45.675Z,1018.87
2017-11-17T10:27:45.664Z,1018.87
2017-11-17T10:28:45.652Z,1018.82
2017-11-17T10:29:45.639Z,1018.83
2017-11-17T10:30:45.628Z,1018.84
2017-11-17T10:31:45.624Z,1018.85
2017-11-17T10:32:45.601Z,1018.9
2017-11-17T10:33:45.589Z,1018.86
2017-11-17T10:34:45.577Z,1018.89
2017-11-17T10:35:45.565Z,1018.88
2017-11-17T10:36:45.552Z,1018.8
2017-11-17T10:37:45.542Z,1018.84
2017-11-17T10:38:45.531Z,1018.85
2017-11-17T10:39:45.524Z,1018.86
2017-11-17T10:40:45.506Z,1018.9
2017-11-17T10:41:45.493Z,1018.85
2017-11-17T10:42:45.485Z,1018.88
2017-11-17T10:43:45.470Z,1018.92
2017-11-17T10:44:45.463Z,1018.92
2017-11-17T10:45:45.449Z,1018.88
2017-11-17T10:46:45.439Z,1018.87
2017-11-17T10:47:45.427Z,1018.9
2017-11-17T10:48:45.414Z,1018.91
2017-11-17T10:49:45.406Z,1018.87
2017-11-17T10:50:45.392Z,1018.89
2017-11-17T10:51:45.383Z,1018.87
2017-11-17T10:52:45.374Z,1018.9
2017-11-17T10:53:45.360Z,1018.89
2017-11-17T10:54:45.352Z,1018.89
2017-11-17T10:55:45.339Z,1018.88
2017-11-17T10:56:45.329Z,1018.86
2017-11-17T10:57:45.320Z,1018.88
2017-11-17T10:58:45.310Z,1018.91
2017-11-17T10:59:45.301Z,1018.92
2017-11-17T11:00:45.290Z,1018.93
2017-11-17T11:01:45.280Z,1018.92
2017-11-17T11:02:45.269Z,1018.9
2017-11-17T11:03:45.260Z,1018.88
2017-11-17T11:04:45.252Z,1018.9
2017-11-17T11:05:45.245Z,1018.9
2017-11-17T11:06:45.232Z,1018.87
2017-11-17T11:07:45.222Z,1018.86
2017-11-17T11:08:45.217Z,1018.87
2017-11-17T11:09:45.205Z,1018.9
2017-11-17T11:10:45.194Z,1018.86
2017-11-17T11:11:45.186Z,1018.9
2017-11-17T11:12:45.175Z,1018.87
2017-11-17T11:13:45.165Z,1018.87
2017-11-17T11:14:45.155Z,1018.87
2017-11-17T11:15:45.147Z,1018.87
2017-11-17T11:16:45.137Z,1018.84
2017-11-17T11:17:45.128Z,1018.84
2017-11-17T11:18:45.117Z,1018.78
2017-11-17T11:19:45.108Z,1018.77
2017-11-17T11:20:45.097Z,1018.8
2017-11-17T11:21:45.087Z,1018.76
2017-11-17T11:22:45.077Z,1018.78
2017-11-17T11:23:45.066Z,1018.78
2017-11-17T11:24:45.060Z,1018.75
2017-11-17T11:25:45.045Z,1018.75
2017-11-17T11:26:45.036Z,1018.72
2017-11-17T11:27:45.022Z,1018.71
2017-11-17T11:28:45.013Z,1018.69
2017-11-17T11:29:44.999Z,1018.67
2017-11-17T11:30:44.989Z,1018.63
2017-11-17T11:31:44.976Z,1018.63
2017-11-17T11:32:44.964Z,1018.65
2017-11-17T11:33:44.953Z,1018.65
2017-11-17T11:34:44.940Z,1018.7
2017-11-17T11:35:44.929Z,1018.67
2017-11-17T11:36:44.917Z,1018.64
2017-11-17T11:37:44.905Z,1018.64
2017-11-17T11:38:44.891Z,1018.65
2017-11-17T11:39:44.880Z,1018.63
2017-11-17T11:40:44.867Z,1018.62
2017-11-17T11:41:44.858Z,1018.61
2017-11-17T11:42:44.841Z,1018.59
2017-11-17T11:43:44.828Z,1018.57
2017-11-17T11:44:44.817Z,1018.57
2017-11-17T11:45:44.803Z,1018.55
2017-11-17T11:46:44.789Z,1018.55
2017-11-17T11:47:44.778Z,1018.58
2017-11-17T11:48:44.764Z,1018.59
2017-11-17T11:49:44.757Z,1018.61
2017-11-17T11:50:44.738Z,1018.58
2017-11-17T11:51:44.726Z,1018.56
2017-11-17T11:52:44.717Z,1018.56
2017-11-17T11:53:44.699Z,1018.52
2017-11-17T11:54:44.690Z,1018.59
2017-11-17T11:55:44.677Z,1018.57
2017-11-17T11:56:44.665Z,1018.56
2017-11-17T11:57:44.651Z,1018.61
2017-11-17T11:58:44.641Z,1018.64
2017-11-17T11:59:44.635Z,1018.66
2017-11-17T12:00:44.621Z,1018.61
2017-11-17T12:01:44.610Z,1018.57
2017-11-17T12:02:44.601Z,1018.6
2017-11-17T12:03:44.597Z,1018.58
2017-11-17T12:04:44.586Z,1018.58
2017-11-17T12:05:44.580Z,1018.54
2017-11-17T12:06:44.567Z,1018.57
2017-11-17T12:07:44.560Z,1018.54
2017-11-17T12:08:44.555Z,1018.59